sensor_id;sensor_type;location;lat;lon;timestamp;pressure;altitude;pressure_sealevel;temperature;humidity
10079;BME280;5078;42.544;22.966;2023-02-16T00:00:59;95150.66;;;-1.14;100.00
10079;BME280;5078;42.544;22.966;2023-02-16T00:03:26;95148.47;;;-1.23;100.00
10079;BME280;5078;42.544;22.966;2023-02-16T00:05:54;95153.16;;;-1.29;100.00
10079;BME280;5078;42.544;22.966;2023-02-16T00:08:21;95154.97;;;-1.50;100.00
10079;BME280;5078;42.544;22.966;2023-02-16T00:10:48;95150.69;;;-1.52;100.00
10079;BME280;5078;42.544;22.966;2023-02-16T00:13:29;95154.00;;;-1.48;100.00
10079;BME280;5078;42.544;22.966;2023-02-16T00:16:16;95155.41;;;-1.60;100.00
10079;BME280;5078;42.544;22.966;2023-02-16T00:18:44;95145.34;;;-1.48;100.00
10079;BME280;5078;42.544;22.966;2023-02-16T00:21:12;95153.06;;;-1.28;100.00
10079;BME280;5078;42.544;22.966;2023-02-16T00:23:39;95156.84;;;-1.35;100.00
10079;BME280;5078;42.544;22.966;2023-02-16T00:26:13;95150.91;;;-1.37;100.00
10079;BME280;5078;42.544;22.966;2023-02-16T00:28:41;95155.81;;;-1.31;100.00
10079;BME280;5078;42.544;22.966;2023-02-16T00:31:15;95157.56;;;-1.32;100.00
10079;BME280;5078;42.544;22.966;2023-02-16T00:33:42;95149.03;;;-1.35;100.00
10079;BME280;5078;42.544;22.966;2023-02-16T00:36:09;95156.69;;;-1.49;100.00
10079;BME280;5078;42.544;22.966;2023-02-16T00:38:37;95159.00;;;-1.81;100.00
10079;BME280;5078;42.544;22.966;2023-02-16T00:41:04;95162.47;;;-1.82;100.00
10079;BME280;5078;42.544;22.966;2023-02-16T00:43:51;95158.22;;;-1.83;100.00
10079;BME280;5078;42.544;22.966;2023-02-16T00:46:20;95158.59;;;-1.92;100.00
10079;BME280;5078;42.544;22.966;2023-02-16T00:48:47;95159.84;;;-2.20;100.00
10079;BME280;5078;42.544;22.966;2023-02-16T00:51:14;95155.56;;;-2.21;100.00
10079;BME280;5078;42.544;22.966;2023-02-16T00:53:42;95151.34;;;-2.24;100.00
10079;BME280;5078;42.544;22.966;2023-02-16T00:56:10;95150.63;;;-2.07;100.00
10079;BME280;5078;42.544;22.966;2023-02-16T00:58:38;95152.63;;;-2.13;100.00
10079;BME280;5078;42.544;22.966;2023-02-16T01:01:08;95155.22;;;-2.13;100.00
10079;BME280;5078;42.544;22.966;2023-02-16T01:03:36;95147.53;;;-2.35;100.00
10079;BME280;5078;42.544;22.966;2023-02-16T01:06:04;95109.63;;;-2.40;100.00
10079;BME280;5078;42.544;22.966;2023-02-16T01:08:49;95144.50;;;-2.06;100.00
10079;BME280;5078;42.544;22.966;2023-02-16T01:11:34;95133.31;;;-2.08;100.00
10079;BME280;5078;42.544;22.966;2023-02-16T01:14:00;95127.03;;;-2.23;100.00
10079;BME280;5078;42.544;22.966;2023-02-16T01:16:33;95129.94;;;-2.10;100.00
10079;BME280;5078;42.544;22.966;2023-02-16T01:19:01;95140.56;;;-2.14;100.00
10079;BME280;5078;42.544;22.966;2023-02-16T01:21:27;95129.16;;;-2.31;100.00
10079;BME280;5078;42.544;22.966;2023-02-16T01:23:56;95143.47;;;-2.22;100.00
10079;BME280;5078;42.544;22.966;2023-02-16T01:26:22;95125.28;;;-2.22;100.00
10079;BME280;5078;42.544;22.966;2023-02-16T01:28:49;95130.75;;;-2.28;100.00
10079;BME280;5078;42.544;22.966;2023-02-16T01:31:16;95115.81;;;-2.23;100.00
10079;BME280;5078;42.544;22.966;2023-02-16T01:33:43;95131.78;;;-2.32;100.00
10079;BME280;5078;42.544;22.966;2023-02-16T01:36:20;95124.59;;;-2.26;100.00
10079;BME280;5078;42.544;22.966;2023-02-16T01:38:48;95127.03;;;-2.42;100.00
10079;BME280;5078;42.544;22.966;2023-02-16T01:41:22;95119.22;;;-2.42;100.00
10079;BME280;5078;42.544;22.966;2023-02-16T01:43:56;95122.81;;;-2.25;100.00
10079;BME280;5078;42.544;22.966;2023-02-16T01:46:31;95114.41;;;-2.30;100.00
10079;BME280;5078;42.544;22.966;2023-02-16T01:48:59;95119.44;;;-2.27;100.00
10079;BME280;5078;42.544;22.966;2023-02-16T01:51:27;95108.31;;;-2.29;100.00
10079;BME280;5078;42.544;22.966;2023-02-16T01:53:59;95101.97;;;-2.63;100.00
10079;BME280;5078;42.544;22.966;2023-02-16T01:56:38;95107.34;;;-2.47;100.00
10079;BME280;5078;42.544;22.966;2023-02-16T01:59:10;95084.78;;;-2.66;100.00
10079;BME280;5078;42.544;22.966;2023-02-16T02:01:43;95112.22;;;-2.40;100.00
10079;BME280;5078;42.544;22.966;2023-02-16T02:04:20;95100.16;;;-2.61;100.00
10079;BME280;5078;42.544;22.966;2023-02-16T02:07:05;95106.94;;;-2.38;100.00
10079;BME280;5078;42.544;22.966;2023-02-16T02:09:37;95101.75;;;-2.38;100.00
10079;BME280;5078;42.544;22.966;2023-02-16T02:12:12;95089.09;;;-2.46;100.00
10079;BME280;5078;42.544;22.966;2023-02-16T02:14:42;95096.22;;;-2.30;100.00
10079;BME280;5078;42.544;22.966;2023-02-16T02:17:12;95111.75;;;-2.29;100.00
10079;BME280;5078;42.544;22.966;2023-02-16T02:19:46;95099.50;;;-2.46;100.00
10079;BME280;5078;42.544;22.966;2023-02-16T02:22:43;95105.59;;;-2.47;100.00
10079;BME280;5078;42.544;22.966;2023-02-16T02:28:49;95110.13;;;-3.13;100.00
10079;BME280;5078;42.544;22.966;2023-02-16T02:31:27;95102.22;;;-3.10;100.00
10079;BME280;5078;42.544;22.966;2023-02-16T02:34:03;95103.00;;;-2.88;100.00
10079;BME280;5078;42.544;22.966;2023-02-16T02:36:37;95111.59;;;-2.86;100.00
10079;BME280;5078;42.544;22.966;2023-02-16T02:39:17;95115.81;;;-2.83;100.00
10079;BME280;5078;42.544;22.966;2023-02-16T02:41:50;95121.19;;;-2.88;100.00
10079;BME280;5078;42.544;22.966;2023-02-16T02:44:34;95116.19;;;-2.92;100.00
10079;BME280;5078;42.544;22.966;2023-02-16T02:47:03;95113.50;;;-3.32;100.00
10079;BME280;5078;42.544;22.966;2023-02-16T02:49:30;95125.72;;;-3.35;100.00
10079;BME280;5078;42.544;22.966;2023-02-16T02:51:57;95116.25;;;-3.14;100.00
10079;BME280;5078;42.544;22.966;2023-02-16T02:54:27;95120.38;;;-3.10;100.00
10079;BME280;5078;42.544;22.966;2023-02-16T02:57:15;95109.13;;;-3.09;100.00
10079;BME280;5078;42.544;22.966;2023-02-16T03:00:05;95099.59;;;-3.31;100.00
10079;BME280;5078;42.544;22.966;2023-02-16T03:02:58;95110.91;;;-3.11;100.00
10079;BME280;5078;42.544;22.966;2023-02-16T03:05:30;95116.38;;;-2.97;100.00
10079;BME280;5078;42.544;22.966;2023-02-16T03:08:02;95096.38;;;-2.95;100.00
10079;BME280;5078;42.544;22.966;2023-02-16T03:10:40;95100.38;;;-2.86;100.00
10079;BME280;5078;42.544;22.966;2023-02-16T03:13:29;95101.94;;;-2.82;100.00
10079;BME280;5078;42.544;22.966;2023-02-16T03:16:03;95110.22;;;-2.94;100.00
10079;BME280;5078;42.544;22.966;2023-02-16T03:18:33;95106.53;;;-2.89;100.00
10079;BME280;5078;42.544;22.966;2023-02-16T03:21:19;95100.19;;;-3.02;100.00
10079;BME280;5078;42.544;22.966;2023-02-16T03:24:06;95106.25;;;-3.03;100.00
10079;BME280;5078;42.544;22.966;2023-02-16T03:26:53;95039.81;;;-3.70;100.00
10079;BME280;5078;42.544;22.966;2023-02-16T03:29:38;95102.84;;;-3.26;100.00
10079;BME280;5078;42.544;22.966;2023-02-16T03:32:06;95111.06;;;-3.58;100.00
10079;BME280;5078;42.544;22.966;2023-02-16T03:34:35;95107.34;;;-3.29;100.00
10079;BME280;5078;42.544;22.966;2023-02-16T03:37:03;95111.69;;;-3.52;100.00
10079;BME280;5078;42.544;22.966;2023-02-16T03:39:31;95114.31;;;-3.53;100.00
10079;BME280;5078;42.544;22.966;2023-02-16T03:42:18;95113.72;;;-3.82;100.00
10079;BME280;5078;42.544;22.966;2023-02-16T03:44:46;95099.13;;;-3.62;100.00
10079;BME280;5078;42.544;22.966;2023-02-16T03:47:14;95106.81;;;-3.59;100.00
10079;BME280;5078;42.544;22.966;2023-02-16T03:49:41;95098.63;;;-3.72;100.00
10079;BME280;5078;42.544;22.966;2023-02-16T03:52:08;95104.00;;;-3.55;100.00
10079;BME280;5078;42.544;22.966;2023-02-16T03:54:34;95105.53;;;-3.49;100.00
10079;BME280;5078;42.544;22.966;2023-02-16T03:57:01;95081.78;;;-3.60;100.00
10079;BME280;5078;42.544;22.966;2023-02-16T03:59:28;95090.47;;;-3.39;100.00
10079;BME280;5078;42.544;22.966;2023-02-16T04:01:55;95007.41;;;-3.80;100.00
10079;BME280;5078;42.544;22.966;2023-02-16T04:04:23;95081.75;;;-3.16;100.00
10079;BME280;5078;42.544;22.966;2023-02-16T04:06:50;95082.94;;;-3.25;100.00
10079;BME280;5078;42.544;22.966;2023-02-16T04:09:16;95082.16;;;-3.27;100.00
10079;BME280;5078;42.544;22.966;2023-02-16T04:11:43;95076.72;;;-3.41;100.00
10079;BME280;5078;42.544;22.966;2023-02-16T04:14:28;95079.97;;;-3.36;100.00
10079;BME280;5078;42.544;22.966;2023-02-16T04:16:54;95065.03;;;-3.52;100.00
10079;BME280;5078;42.544;22.966;2023-02-16T04:19:23;95068.28;;;-3.91;100.00
10079;BME280;5078;42.544;22.966;2023-02-16T04:21:49;95083.66;;;-4.09;100.00
10079;BME280;5078;42.544;22.966;2023-02-16T04:24:17;95080.72;;;-4.46;100.00
10079;BME280;5078;42.544;22.966;2023-02-16T04:26:44;95094.31;;;-4.41;100.00
10079;BME280;5078;42.544;22.966;2023-02-16T04:29:11;95100.06;;;-4.56;100.00
10079;BME280;5078;42.544;22.966;2023-02-16T04:31:38;95097.09;;;-4.70;100.00
10079;BME280;5078;42.544;22.966;2023-02-16T04:34:04;95088.66;;;-4.75;100.00
10079;BME280;5078;42.544;22.966;2023-02-16T04:36:34;95086.63;;;-4.67;100.00
10079;BME280;5078;42.544;22.966;2023-02-16T04:39:00;95084.22;;;-4.72;100.00
10079;BME280;5078;42.544;22.966;2023-02-16T04:41:27;95094.47;;;-4.69;100.00
10079;BME280;5078;42.544;22.966;2023-02-16T04:43:54;95090.53;;;-4.79;100.00
10079;BME280;5078;42.544;22.966;2023-02-16T04:46:20;95095.31;;;-4.68;100.00
10079;BME280;5078;42.544;22.966;2023-02-16T04:48:48;95094.56;;;-4.72;100.00
10079;BME280;5078;42.544;22.966;2023-02-16T04:51:14;95088.72;;;-4.77;100.00
10079;BME280;5078;42.544;22.966;2023-02-16T04:53:42;95096.88;;;-4.64;100.00
10079;BME280;5078;42.544;22.966;2023-02-16T04:56:10;95102.81;;;-4.61;100.00
10079;BME280;5078;42.544;22.966;2023-02-16T04:58:37;95055.06;;;-5.01;100.00
10079;BME280;5078;42.544;22.966;2023-02-16T05:01:03;95090.88;;;-4.65;100.00
10079;BME280;5078;42.544;22.966;2023-02-16T05:03:30;95103.53;;;-4.82;100.00
10079;BME280;5078;42.544;22.966;2023-02-16T05:05:57;95103.44;;;-5.04;100.00
10079;BME280;5078;42.544;22.966;2023-02-16T05:08:24;95100.94;;;-5.32;100.00
10079;BME280;5078;42.544;22.966;2023-02-16T05:10:52;95102.72;;;-5.34;100.00
10079;BME280;5078;42.544;22.966;2023-02-16T05:13:33;95112.31;;;-5.11;100.00
10079;BME280;5078;42.544;22.966;2023-02-16T05:16:19;95115.38;;;-5.00;100.00
10079;BME280;5078;42.544;22.966;2023-02-16T05:18:46;95116.13;;;-4.71;100.00
10079;BME280;5078;42.544;22.966;2023-02-16T05:21:12;95110.59;;;-4.62;100.00
10079;BME280;5078;42.544;22.966;2023-02-16T05:23:59;95122.88;;;-4.67;100.00
10079;BME280;5078;42.544;22.966;2023-02-16T05:26:27;95121.50;;;-4.78;100.00
10079;BME280;5078;42.544;22.966;2023-02-16T05:28:54;95117.38;;;-4.83;100.00
10079;BME280;5078;42.544;22.966;2023-02-16T05:31:22;95110.44;;;-4.58;100.00
10079;BME280;5078;42.544;22.966;2023-02-16T05:33:49;95116.81;;;-4.43;100.00
10079;BME280;5078;42.544;22.966;2023-02-16T05:36:16;95091.38;;;-4.55;100.00
10079;BME280;5078;42.544;22.966;2023-02-16T05:38:42;95110.94;;;-4.46;100.00
10079;BME280;5078;42.544;22.966;2023-02-16T05:41:09;95134.00;;;-4.40;100.00
10079;BME280;5078;42.544;22.966;2023-02-16T05:43:38;95126.19;;;-4.39;100.00
10079;BME280;5078;42.544;22.966;2023-02-16T05:46:10;95125.09;;;-4.57;100.00
10079;BME280;5078;42.544;22.966;2023-02-16T05:48:37;95132.75;;;-4.53;100.00
10079;BME280;5078;42.544;22.966;2023-02-16T05:51:06;95116.69;;;-5.13;100.00
10079;BME280;5078;42.544;22.966;2023-02-16T05:53:33;95101.44;;;-5.48;100.00
10079;BME280;5078;42.544;22.966;2023-02-16T05:56:00;95137.38;;;-5.13;100.00
10079;BME280;5078;42.544;22.966;2023-02-16T05:58:26;95141.53;;;-4.84;100.00
10079;BME280;5078;42.544;22.966;2023-02-16T06:00:55;95140.16;;;-4.94;100.00
10079;BME280;5078;42.544;22.966;2023-02-16T06:03:22;95132.50;;;-4.71;100.00
10079;BME280;5078;42.544;22.966;2023-02-16T06:05:51;95143.03;;;-4.77;100.00
10079;BME280;5078;42.544;22.966;2023-02-16T06:08:18;95143.28;;;-4.60;100.00
10079;BME280;5078;42.544;22.966;2023-02-16T06:10:45;95120.59;;;-4.51;100.00
10079;BME280;5078;42.544;22.966;2023-02-16T06:13:11;95144.38;;;-4.17;100.00
10079;BME280;5078;42.544;22.966;2023-02-16T06:15:38;95145.59;;;-4.03;100.00
10079;BME280;5078;42.544;22.966;2023-02-16T06:18:06;95143.22;;;-3.86;100.00
10079;BME280;5078;42.544;22.966;2023-02-16T06:20:33;95151.09;;;-3.65;100.00
10079;BME280;5078;42.544;22.966;2023-02-16T06:23:00;95140.31;;;-3.77;100.00
10079;BME280;5078;42.544;22.966;2023-02-16T06:25:27;95149.69;;;-3.52;100.00
10079;BME280;5078;42.544;22.966;2023-02-16T06:27:53;95155.66;;;-3.72;100.00
10079;BME280;5078;42.544;22.966;2023-02-16T06:30:21;95147.72;;;-3.67;100.00
10079;BME280;5078;42.544;22.966;2023-02-16T06:32:48;95166.88;;;-4.19;100.00
10079;BME280;5078;42.544;22.966;2023-02-16T06:35:16;95165.53;;;-4.29;100.00
10079;BME280;5078;42.544;22.966;2023-02-16T06:37:43;95167.56;;;-4.14;100.00
10079;BME280;5078;42.544;22.966;2023-02-16T06:40:11;95163.03;;;-4.32;100.00
10079;BME280;5078;42.544;22.966;2023-02-16T06:42:39;95170.28;;;-4.67;100.00
10079;BME280;5078;42.544;22.966;2023-02-16T06:45:07;95161.81;;;-4.47;100.00
10079;BME280;5078;42.544;22.966;2023-02-16T06:47:34;95163.53;;;-4.71;100.00
10079;BME280;5078;42.544;22.966;2023-02-16T06:50:02;95171.72;;;-4.58;100.00
10079;BME280;5078;42.544;22.966;2023-02-16T06:52:30;95163.56;;;-4.47;100.00
10079;BME280;5078;42.544;22.966;2023-02-16T06:54:57;95148.53;;;-4.36;100.00
10079;BME280;5078;42.544;22.966;2023-02-16T06:57:24;95163.63;;;-4.24;100.00
10079;BME280;5078;42.544;22.966;2023-02-16T06:59:51;95164.19;;;-4.16;100.00
10079;BME280;5078;42.544;22.966;2023-02-16T07:02:18;95171.66;;;-4.08;100.00
10079;BME280;5078;42.544;22.966;2023-02-16T07:04:44;95169.75;;;-4.03;100.00
10079;BME280;5078;42.544;22.966;2023-02-16T07:07:11;95164.03;;;-4.11;100.00
10079;BME280;5078;42.544;22.966;2023-02-16T07:09:39;95124.31;;;-4.35;100.00
10079;BME280;5078;42.544;22.966;2023-02-16T07:12:06;95176.88;;;-4.33;100.00
10079;BME280;5078;42.544;22.966;2023-02-16T07:14:33;95003.31;;;-5.24;100.00
10079;BME280;5078;42.544;22.966;2023-02-16T07:17:00;95114.97;;;-4.16;100.00
10079;BME280;5078;42.544;22.966;2023-02-16T07:19:28;95161.16;;;-4.03;100.00
10079;BME280;5078;42.544;22.966;2023-02-16T07:21:57;95155.19;;;-3.82;100.00
10079;BME280;5078;42.544;22.966;2023-02-16T07:24:24;95150.84;;;-3.81;100.00
10079;BME280;5078;42.544;22.966;2023-02-16T07:26:59;95163.75;;;-3.58;100.00
10079;BME280;5078;42.544;22.966;2023-02-16T07:29:26;95147.91;;;-3.28;100.00
10079;BME280;5078;42.544;22.966;2023-02-16T07:31:56;95156.28;;;-3.43;100.00
10079;BME280;5078;42.544;22.966;2023-02-16T07:34:25;95153.09;;;-3.50;100.00
10079;BME280;5078;42.544;22.966;2023-02-16T07:36:52;95159.53;;;-3.60;100.00
10079;BME280;5078;42.544;22.966;2023-02-16T07:39:18;95151.41;;;-3.51;100.00
10079;BME280;5078;42.544;22.966;2023-02-16T07:41:45;95153.28;;;-3.33;100.00
10079;BME280;5078;42.544;22.966;2023-02-16T07:44:13;95149.75;;;-3.10;100.00
10079;BME280;5078;42.544;22.966;2023-02-16T07:46:40;95142.59;;;-2.83;100.00
10079;BME280;5078;42.544;22.966;2023-02-16T07:49:07;95145.00;;;-2.37;100.00
10079;BME280;5078;42.544;22.966;2023-02-16T07:51:33;95115.75;;;-2.42;100.00
10079;BME280;5078;42.544;22.966;2023-02-16T07:54:00;95093.28;;;-2.23;100.00
10079;BME280;5078;42.544;22.966;2023-02-16T07:56:29;95133.34;;;-2.28;100.00
10079;BME280;5078;42.544;22.966;2023-02-16T07:58:58;95137.75;;;-1.91;100.00
10079;BME280;5078;42.544;22.966;2023-02-16T08:01:27;95127.63;;;-1.40;100.00
10079;BME280;5078;42.544;22.966;2023-02-16T08:03:55;95097.06;;;-1.18;100.00
10079;BME280;5078;42.544;22.966;2023-02-16T08:06:22;95132.63;;;-0.64;100.00
10079;BME280;5078;42.544;22.966;2023-02-16T08:08:49;95132.50;;;-0.28;100.00
10079;BME280;5078;42.544;22.966;2023-02-16T08:11:18;95134.53;;;0.00;100.00
10079;BME280;5078;42.544;22.966;2023-02-16T08:13:45;95120.88;;;-0.05;100.00
10079;BME280;5078;42.544;22.966;2023-02-16T08:16:14;95136.50;;;-0.05;100.00
10079;BME280;5078;42.544;22.966;2023-02-16T08:18:43;95125.91;;;0.15;100.00
10079;BME280;5078;42.544;22.966;2023-02-16T08:21:11;95107.69;;;-0.02;100.00
10079;BME280;5078;42.544;22.966;2023-02-16T08:23:40;95120.09;;;0.26;100.00
10079;BME280;5078;42.544;22.966;2023-02-16T08:26:08;95115.41;;;0.80;100.00
10079;BME280;5078;42.544;22.966;2023-02-16T08:28:36;95128.03;;;1.48;100.00
10079;BME280;5078;42.544;22.966;2023-02-16T08:31:06;95125.69;;;2.03;100.00
10079;BME280;5078;42.544;22.966;2023-02-16T08:33:33;95128.84;;;2.51;100.00
10079;BME280;5078;42.544;22.966;2023-02-16T08:36:03;95127.31;;;2.75;100.00
10079;BME280;5078;42.544;22.966;2023-02-16T08:38:33;95125.00;;;2.98;100.00
10079;BME280;5078;42.544;22.966;2023-02-16T08:41:00;95124.66;;;2.90;100.00
10079;BME280;5078;42.544;22.966;2023-02-16T08:43:27;95128.75;;;3.74;100.00
10079;BME280;5078;42.544;22.966;2023-02-16T08:45:54;95117.53;;;4.36;100.00
10079;BME280;5078;42.544;22.966;2023-02-16T08:48:21;95118.88;;;4.91;100.00
10079;BME280;5078;42.544;22.966;2023-02-16T08:50:48;95109.44;;;5.12;100.00
10079;BME280;5078;42.544;22.966;2023-02-16T08:53:19;95116.69;;;5.09;100.00
10079;BME280;5078;42.544;22.966;2023-02-16T08:55:51;95106.34;;;5.43;92.97
10079;BME280;5078;42.544;22.966;2023-02-16T08:58:18;95107.63;;;4.89;94.98
10079;BME280;5078;42.544;22.966;2023-02-16T09:00:45;95113.56;;;5.52;90.11
10079;BME280;5078;42.544;22.966;2023-02-16T09:03:12;95118.75;;;5.65;87.20
10079;BME280;5078;42.544;22.966;2023-02-16T09:05:40;95110.28;;;6.30;83.61
10079;BME280;5078;42.544;22.966;2023-02-16T09:08:07;95101.50;;;5.96;84.49
10079;BME280;5078;42.544;22.966;2023-02-16T09:10:35;95106.31;;;6.24;84.28
10079;BME280;5078;42.544;22.966;2023-02-16T09:13:02;95104.50;;;6.36;80.87
10079;BME280;5078;42.544;22.966;2023-02-16T09:15:31;95095.91;;;6.57;81.39
10079;BME280;5078;42.544;22.966;2023-02-16T09:17:57;95090.94;;;6.86;78.92
10079;BME280;5078;42.544;22.966;2023-02-16T09:20:24;95084.72;;;6.76;78.64
10079;BME280;5078;42.544;22.966;2023-02-16T09:22:51;95079.34;;;7.21;77.18
10079;BME280;5078;42.544;22.966;2023-02-16T09:25:18;95085.47;;;6.66;78.14
10079;BME280;5078;42.544;22.966;2023-02-16T09:27:47;95078.53;;;7.41;77.47
10079;BME280;5078;42.544;22.966;2023-02-16T09:30:14;95078.13;;;7.57;74.53
10079;BME280;5078;42.544;22.966;2023-02-16T09:32:41;95073.56;;;7.59;74.52
10079;BME280;5078;42.544;22.966;2023-02-16T09:35:07;95060.22;;;8.03;71.19
10079;BME280;5078;42.544;22.966;2023-02-16T09:37:35;95059.66;;;7.57;75.10
10079;BME280;5078;42.544;22.966;2023-02-16T09:40:01;95067.00;;;8.47;70.12
10079;BME280;5078;42.544;22.966;2023-02-16T09:42:33;95058.56;;;8.63;67.86
10079;BME280;5078;42.544;22.966;2023-02-16T09:45:08;95037.50;;;8.42;64.71
10079;BME280;5078;42.544;22.966;2023-02-16T09:47:37;95052.06;;;8.36;66.39
10079;BME280;5078;42.544;22.966;2023-02-16T09:50:12;95057.63;;;8.83;66.08
10079;BME280;5078;42.544;22.966;2023-02-16T09:52:43;95053.13;;;9.34;62.07
10079;BME280;5078;42.544;22.966;2023-02-16T09:55:15;95048.13;;;9.21;61.04
10079;BME280;5078;42.544;22.966;2023-02-16T09:57:50;95052.03;;;9.37;57.67
10079;BME280;5078;42.544;22.966;2023-02-16T10:00:28;95037.59;;;9.88;56.72
10079;BME280;5078;42.544;22.966;2023-02-16T10:03:09;95042.25;;;9.57;56.84
10079;BME280;5078;42.544;22.966;2023-02-16T10:05:44;95037.25;;;9.54;57.51
10079;BME280;5078;42.544;22.966;2023-02-16T10:08:14;95036.47;;;10.00;55.55
10079;BME280;5078;42.544;22.966;2023-02-16T10:10:45;95011.56;;;10.30;53.69
10079;BME280;5078;42.544;22.966;2023-02-16T10:13:20;95026.19;;;10.44;54.03
10079;BME280;5078;42.544;22.966;2023-02-16T10:15:50;94995.91;;;10.00;53.88
10079;BME280;5078;42.544;22.966;2023-02-16T10:18:26;95020.25;;;9.56;55.36
10079;BME280;5078;42.544;22.966;2023-02-16T10:20:55;95015.69;;;10.05;55.52
10079;BME280;5078;42.544;22.966;2023-02-16T10:23:40;95011.50;;;10.03;54.31
10079;BME280;5078;42.544;22.966;2023-02-16T10:26:15;95010.00;;;10.38;54.32
10079;BME280;5078;42.544;22.966;2023-02-16T10:28:46;95004.31;;;10.60;54.05
10079;BME280;5078;42.544;22.966;2023-02-16T10:31:20;95003.84;;;10.47;54.00
10079;BME280;5078;42.544;22.966;2023-02-16T10:33:58;94992.72;;;10.89;52.53
10079;BME280;5078;42.544;22.966;2023-02-16T10:36:33;94995.44;;;10.97;50.99
10079;BME280;5078;42.544;22.966;2023-02-16T10:39:08;94990.78;;;11.09;51.41
10079;BME280;5078;42.544;22.966;2023-02-16T10:41:44;94972.88;;;11.11;50.85
10079;BME280;5078;42.544;22.966;2023-02-16T10:44:18;94981.66;;;11.47;48.50
10079;BME280;5078;42.544;22.966;2023-02-16T10:46:52;94967.41;;;11.12;49.53
10079;BME280;5078;42.544;22.966;2023-02-16T10:49:20;94976.13;;;11.05;48.28
10079;BME280;5078;42.544;22.966;2023-02-16T10:51:49;94975.31;;;10.58;48.30
10079;BME280;5078;42.544;22.966;2023-02-16T10:54:20;94971.31;;;10.72;46.37
10079;BME280;5078;42.544;22.966;2023-02-16T10:56:51;94961.13;;;11.31;46.63
10079;BME280;5078;42.544;22.966;2023-02-16T10:59:22;94951.03;;;11.17;46.80
10079;BME280;5078;42.544;22.966;2023-02-16T11:01:52;94957.53;;;10.69;47.19
10079;BME280;5078;42.544;22.966;2023-02-16T11:04:36;94949.94;;;11.28;46.25
10079;BME280;5078;42.544;22.966;2023-02-16T11:07:06;94942.63;;;11.48;45.39
10079;BME280;5078;42.544;22.966;2023-02-16T11:09:33;94948.03;;;11.56;45.62
10079;BME280;5078;42.544;22.966;2023-02-16T11:12:01;94945.00;;;12.03;44.76
10079;BME280;5078;42.544;22.966;2023-02-16T11:14:29;94934.09;;;12.06;44.15
10079;BME280;5078;42.544;22.966;2023-02-16T11:17:06;94916.41;;;11.97;44.58
10079;BME280;5078;42.544;22.966;2023-02-16T11:19:36;94938.75;;;11.60;44.24
10079;BME280;5078;42.544;22.966;2023-02-16T11:22:05;94908.03;;;11.83;43.93
10079;BME280;5078;42.544;22.966;2023-02-16T11:24:34;94916.53;;;11.61;43.20
10079;BME280;5078;42.544;22.966;2023-02-16T11:27:05;94928.84;;;11.70;41.38
10079;BME280;5078;42.544;22.966;2023-02-16T11:29:33;94922.56;;;11.71;42.84
10079;BME280;5078;42.544;22.966;2023-02-16T11:32:05;94930.09;;;12.10;40.98
10079;BME280;5078;42.544;22.966;2023-02-16T11:34:34;94919.53;;;12.18;40.37
10079;BME280;5078;42.544;22.966;2023-02-16T11:37:05;94914.63;;;12.40;39.24
10079;BME280;5078;42.544;22.966;2023-02-16T11:39:35;94919.34;;;12.62;38.74
10079;BME280;5078;42.544;22.966;2023-02-16T11:42:06;94910.34;;;12.55;38.74
10079;BME280;5078;42.544;22.966;2023-02-16T11:44:36;94911.13;;;12.05;39.31
10079;BME280;5078;42.544;22.966;2023-02-16T11:47:07;94905.16;;;12.45;36.99
10079;BME280;5078;42.544;22.966;2023-02-16T11:49:37;94906.31;;;11.74;38.97
10079;BME280;5078;42.544;22.966;2023-02-16T11:52:25;94900.19;;;12.08;39.51
10079;BME280;5078;42.544;22.966;2023-02-16T11:54:55;94907.56;;;12.22;39.13
10079;BME280;5078;42.544;22.966;2023-02-16T11:57:24;94898.84;;;12.04;38.93
10079;BME280;5078;42.544;22.966;2023-02-16T11:59:53;94896.66;;;12.42;36.98
10079;BME280;5078;42.544;22.966;2023-02-16T12:02:35;94883.03;;;12.45;37.73
10079;BME280;5078;42.544;22.966;2023-02-16T12:05:22;94868.66;;;12.13;36.66
10079;BME280;5078;42.544;22.966;2023-02-16T12:08:02;94876.25;;;12.50;34.97
10079;BME280;5078;42.544;22.966;2023-02-16T12:10:37;94870.47;;;12.63;35.70
10079;BME280;5078;42.544;22.966;2023-02-16T12:13:14;94879.41;;;12.46;34.92
10079;BME280;5078;42.544;22.966;2023-02-16T12:15:47;94877.50;;;12.30;35.64
10079;BME280;5078;42.544;22.966;2023-02-16T12:18:26;94864.00;;;12.15;35.90
10079;BME280;5078;42.544;22.966;2023-02-16T12:21:01;94862.47;;;12.04;34.82
10079;BME280;5078;42.544;22.966;2023-02-16T12:23:37;94853.28;;;11.91;35.70
10079;BME280;5078;42.544;22.966;2023-02-16T12:26:28;94845.94;;;11.58;36.27
10079;BME280;5078;42.544;22.966;2023-02-16T12:29:09;94846.50;;;11.96;36.47
10079;BME280;5078;42.544;22.966;2023-02-16T12:31:49;94857.28;;;11.95;35.65
10079;BME280;5078;42.544;22.966;2023-02-16T12:34:27;94845.16;;;12.00;35.51
10079;BME280;5078;42.544;22.966;2023-02-16T12:36:59;94833.81;;;11.90;36.14
10079;BME280;5078;42.544;22.966;2023-02-16T12:39:30;94838.88;;;12.09;36.45
10079;BME280;5078;42.544;22.966;2023-02-16T12:42:13;94831.75;;;12.10;36.57
10079;BME280;5078;42.544;22.966;2023-02-16T12:44:47;94834.78;;;12.23;35.76
10079;BME280;5078;42.544;22.966;2023-02-16T12:47:19;94828.69;;;11.89;36.20
10079;BME280;5078;42.544;22.966;2023-02-16T12:49:53;94826.75;;;12.07;36.08
10079;BME280;5078;42.544;22.966;2023-02-16T12:52:29;94812.78;;;11.97;36.92
10079;BME280;5078;42.544;22.966;2023-02-16T12:55:15;94819.66;;;12.24;36.29
10079;BME280;5078;42.544;22.966;2023-02-16T12:57:50;94766.91;;;11.95;35.98
10079;BME280;5078;42.544;22.966;2023-02-16T13:00:24;94806.72;;;12.21;35.81
10079;BME280;5078;42.544;22.966;2023-02-16T13:02:55;94808.69;;;12.27;35.69
10079;BME280;5078;42.544;22.966;2023-02-16T13:05:29;94817.81;;;12.16;35.58
10079;BME280;5078;42.544;22.966;2023-02-16T13:08:01;94805.22;;;12.26;35.41
10079;BME280;5078;42.544;22.966;2023-02-16T13:10:35;94801.94;;;12.41;34.91
10079;BME280;5078;42.544;22.966;2023-02-16T13:13:10;94792.09;;;12.33;35.35
10079;BME280;5078;42.544;22.966;2023-02-16T13:15:40;94802.25;;;12.46;35.61
10079;BME280;5078;42.544;22.966;2023-02-16T13:18:16;94794.97;;;12.56;34.55